Time;durP1;ratioP1;P1;durP2;ratioP2;P2;SDS_P1;SDS_P2;PMS_P1;PMS_P2;Temp;Humidity;BMP_temperature;BMP_pressure;BME280_temperature;BME280_humidity;BME280_pressure;Samples;Min_cycle;Max_cycle;Signal;HPM_P1;HPM_P2
2023/11/22 00:02:02;;;;;;;10.98;3.42;;;8.80;99.90;;;;;;5047129;28;20033;-77
2023/11/22 00:04:28;;;;;;;9.27;2.80;;;8.80;99.90;;;;;;5047153;28;20033;-77
2023/11/22 00:06:54;;;;;;;7.90;2.67;;;8.80;99.90;;;;;;5047950;28;20048;-77
2023/11/22 00:09:22;;;;;;;6.57;2.00;;;8.80;99.90;;;;;;5047121;28;20330;-77
2023/11/22 00:11:49;;;;;;;13.35;3.53;;;8.80;99.90;;;;;;5048128;28;20234;-77
2023/11/22 00:14:14;;;;;;;8.82;2.67;;;8.70;99.90;;;;;;5030725;28;20191;-77
2023/11/22 00:16:40;;;;;;;4.22;1.50;;;8.70;99.90;;;;;;5046913;28;20030;-77
2023/11/22 00:19:06;;;;;;;5.80;1.67;;;8.80;99.90;;;;;;5046781;28;20097;-77
2023/11/22 00:21:32;;;;;;;8.10;2.20;;;8.80;99.90;;;;;;5029384;28;20079;-76
2023/11/22 00:23:58;;;;;;;6.72;2.00;;;8.80;99.90;;;;;;5046670;28;20049;-78
2023/11/22 00:26:23;;;;;;;11.13;3.33;;;8.80;99.90;;;;;;5046631;28;20037;-78
2023/11/22 00:28:49;;;;;;;10.88;3.60;;;8.80;99.90;;;;;;5047603;28;20036;-78
2023/11/22 00:31:15;;;;;;;6.72;2.05;;;8.80;99.90;;;;;;5046540;28;20030;-78
2023/11/22 00:33:41;;;;;;;14.85;4.78;;;8.80;99.90;;;;;;5030292;28;20048;-77
2023/11/22 00:36:08;;;;;;;10.00;3.65;;;8.80;99.90;;;;;;5030176;28;20101;-77
2023/11/22 00:38:39;;;;;;;7.28;2.50;;;8.80;99.90;;;;;;5047345;28;20286;-77
2023/11/22 00:41:05;;;;;;;8.82;3.55;;;8.80;99.90;;;;;;5046364;28;20069;-77
2023/11/22 00:43:31;;;;;;;5.80;2.03;;;8.80;99.90;;;;;;5046446;28;20283;-78
2023/11/22 00:45:57;;;;;;;9.93;1.90;;;8.80;99.90;;;;;;5046944;28;20013;-77
2023/11/22 00:48:22;;;;;;;6.10;1.75;;;8.80;99.90;;;;;;5029872;28;20033;-76
2023/11/22 00:50:48;;;;;;;12.65;4.60;;;8.80;99.90;;;;;;5047033;28;20307;-76
2023/11/22 00:53:14;;;;;;;12.23;4.50;;;8.80;99.90;;;;;;5047156;28;20076;-76
2023/11/22 00:55:42;;;;;;;7.45;2.63;;;8.80;99.90;;;;;;5046251;28;20208;-76
2023/11/22 00:58:07;;;;;;;7.85;2.70;;;8.80;99.90;;;;;;5013748;28;20029;-74
2023/11/22 01:00:33;;;;;;;6.35;1.40;;;8.80;99.90;;;;;;5029393;28;20033;-76
2023/11/22 01:02:59;;;;;;;3.85;1.50;;;8.80;99.90;;;;;;5046703;28;20072;-76
2023/11/22 01:05:24;;;;;;;9.75;3.72;;;8.80;99.90;;;;;;5013138;28;20026;-78
2023/11/22 01:07:50;;;;;;;10.70;3.60;;;8.80;99.90;;;;;;5047068;28;20022;-78
2023/11/22 01:10:16;;;;;;;11.45;3.00;;;8.80;99.90;;;;;;5029440;28;20100;-78
2023/11/22 01:12:41;;;;;;;8.23;2.97;;;8.80;99.90;;;;;;5029311;28;20086;-76
2023/11/22 01:15:08;;;;;;;7.65;2.63;;;8.80;99.90;;;;;;5029305;28;20017;-76
2023/11/22 01:17:34;;;;;;;8.07;2.70;;;8.80;99.90;;;;;;5046792;28;20061;-76
2023/11/22 01:20:00;;;;;;;9.30;2.00;;;8.80;99.90;;;;;;5045522;28;20093;-76
2023/11/22 01:22:27;;;;;;;2.78;1.50;;;8.70;99.90;;;;;;5045541;28;20029;-76
2023/11/22 01:24:53;;;;;;;7.03;2.38;;;8.80;99.90;;;;;;5045685;28;20033;-77
2023/11/22 01:27:19;;;;;;;9.98;2.85;;;8.80;99.90;;;;;;5045631;28;20017;-76
2023/11/22 01:29:45;;;;;;;3.85;1.40;;;8.80;99.90;;;;;;5045626;28;20170;-75
2023/11/22 01:32:11;;;;;;;7.93;2.50;;;8.80;99.90;;;;;;5046210;28;20095;-76
2023/11/22 01:34:36;;;;;;;10.60;2.63;;;8.90;99.90;;;;;;5046882;28;20029;-75
2023/11/22 01:37:03;;;;;;;11.57;3.60;;;8.80;99.90;;;;;;5012839;28;20243;-75
2023/11/22 01:39:28;;;;;;;10.43;2.45;;;8.80;99.90;;;;;;5045441;28;20103;-75
2023/11/22 01:41:54;;;;;;;10.05;2.97;;;8.80;99.90;;;;;;5012553;28;20294;-76
2023/11/22 01:44:20;;;;;;;6.70;2.33;;;8.80;99.90;;;;;;5046010;28;20041;-75
2023/11/22 01:46:45;;;;;;;10.02;3.05;;;8.80;99.90;;;;;;5046116;28;20171;-76
2023/11/22 01:49:11;;;;;;;6.68;1.73;;;8.90;99.90;;;;;;5045146;28;20045;-76
2023/11/22 01:51:37;;;;;;;7.32;2.70;;;8.90;99.90;;;;;;5028758;28;20195;-75
2023/11/22 01:54:03;;;;;;;8.30;2.88;;;8.90;99.90;;;;;;5028752;28;20044;-76
2023/11/22 01:56:29;;;;;;;9.52;1.80;;;8.80;99.90;;;;;;5045083;28;20052;-75
2023/11/22 01:58:55;;;;;;;7.80;2.40;;;8.90;99.90;;;;;;5045143;28;20347;-76
2023/11/22 02:01:20;;;;;;;7.03;2.17;;;8.90;99.90;;;;;;5028481;28;20203;-75
2023/11/22 02:03:52;;;;;;;8.85;2.53;;;8.90;99.90;;;;;;5045160;28;20040;-75
2023/11/22 02:06:17;;;;;;;5.43;1.75;;;8.90;99.90;;;;;;5045078;28;20017;-78
2023/11/22 02:08:43;;;;;;;10.48;2.40;;;8.90;99.90;;;;;;5044877;28;20049;-75
2023/11/22 02:11:09;;;;;;;5.75;2.05;;;8.90;99.90;;;;;;5028564;28;20052;-76
2023/11/22 02:13:36;;;;;;;9.60;2.53;;;8.90;99.90;;;;;;5028468;28;20225;-77
2023/11/22 02:16:02;;;;;;;8.43;2.13;;;8.90;99.90;;;;;;5045753;28;20034;-75
2023/11/22 02:18:28;;;;;;;6.32;2.08;;;9.00;99.90;;;;;;5045441;28;20025;-76
2023/11/22 02:20:54;;;;;;;7.72;1.98;;;8.90;99.90;;;;;;5028247;28;20056;-76
2023/11/22 02:23:19;;;;;;;3.17;1.83;;;8.90;99.90;;;;;;5045712;28;20033;-76
2023/11/22 02:25:47;;;;;;;6.80;2.90;;;8.90;99.90;;;;;;5027925;28;20029;-76
2023/11/22 02:28:14;;;;;;;11.27;2.50;;;9.00;99.90;;;;;;5028678;28;20279;-76
2023/11/22 02:30:39;;;;;;;8.07;2.65;;;9.00;99.90;;;;;;5044522;28;20056;-76
2023/11/22 02:33:05;;;;;;;7.55;2.75;;;9.00;99.90;;;;;;5028191;28;20206;-77
2023/11/22 02:35:34;;;;;;;11.05;3.17;;;9.00;99.90;;;;;;5044579;28;20087;-76
2023/11/22 02:38:00;;;;;;;7.63;3.42;;;9.00;99.90;;;;;;5045506;28;20041;-76
2023/11/22 02:40:26;;;;;;;8.23;2.78;;;9.00;99.90;;;;;;5027825;28;20040;-77
2023/11/22 02:42:52;;;;;;;6.65;2.70;;;9.00;99.90;;;;;;5027250;28;20018;-76
2023/11/22 02:45:19;;;;;;;7.07;2.28;;;9.00;99.90;;;;;;5028070;28;20049;-76
2023/11/22 02:47:46;;;;;;;9.90;2.58;;;9.00;99.90;;;;;;5011701;28;20032;-76
2023/11/22 02:50:12;;;;;;;5.10;2.40;;;9.10;99.90;;;;;;5027804;28;20045;-76
2023/11/22 02:52:38;;;;;;;5.40;2.30;;;9.10;99.90;;;;;;5045372;28;20104;-76
2023/11/22 02:55:09;;;;;;;6.03;2.15;;;9.10;99.90;;;;;;5011621;28;20026;-77
2023/11/22 02:57:36;;;;;;;8.57;2.60;;;9.10;99.90;;;;;;5045367;28;20282;-76
2023/11/22 03:00:04;;;;;;;5.40;2.50;;;9.20;99.90;;;;;;5027858;28;20041;-76
2023/11/22 03:02:31;;;;;;;7.28;2.83;;;9.20;99.90;;;;;;5044887;28;20037;-76
2023/11/22 03:04:58;;;;;;;2.75;1.63;;;9.20;99.90;;;;;;5045149;28;20017;-76
2023/11/22 03:07:25;;;;;;;14.85;3.03;;;9.20;99.90;;;;;;5045178;28;20026;-76
2023/11/22 03:09:51;;;;;;;11.40;3.30;;;9.30;99.90;;;;;;5045280;28;20285;-76
2023/11/22 03:12:18;;;;;;;7.53;2.10;;;9.30;99.90;;;;;;5044330;28;20025;-76
2023/11/22 03:14:43;;;;;;;5.20;1.67;;;9.30;99.90;;;;;;5027945;28;20399;-76
2023/11/22 03:17:09;;;;;;;4.70;2.13;;;9.30;99.90;;;;;;5044184;28;20033;-76
2023/11/22 03:19:35;;;;;;;7.70;1.95;;;9.40;99.90;;;;;;5044169;28;20025;-77
2023/11/22 03:22:02;;;;;;;7.47;1.70;;;9.60;99.90;;;;;;5044091;28;20052;-76
2023/11/22 03:24:32;;;;;;;6.90;1.92;;;9.70;99.90;;;;;;5044886;28;20022;-76
2023/11/22 03:26:58;;;;;;;7.30;1.80;;;9.90;99.90;;;;;;5044106;28;20032;-77
2023/11/22 03:29:25;;;;;;;13.93;2.47;;;10.00;99.90;;;;;;5044028;28;20032;-76
2023/11/22 03:31:51;;;;;;;7.38;2.00;;;10.10;99.90;;;;;;5011337;28;20029;-76
2023/11/22 03:34:17;;;;;;;8.77;2.10;;;10.10;99.90;;;;;;5027766;28;20360;-76
2023/11/22 03:36:42;;;;;;;6.18;1.70;;;10.10;99.90;;;;;;5027665;28;20051;-76
2023/11/22 03:39:10;;;;;;;8.68;1.90;;;10.20;99.90;;;;;;5043793;28;20083;-76
2023/11/22 03:41:37;;;;;;;5.45;1.50;;;10.20;99.90;;;;;;5027610;28;20021;-76
2023/11/22 03:44:04;;;;;;;7.95;2.35;;;10.20;99.90;;;;;;5045133;28;20030;-76
2023/11/22 03:46:30;;;;;;;4.40;1.73;;;10.30;99.90;;;;;;5045063;28;20025;-77
2023/11/22 03:48:56;;;;;;;9.15;1.77;;;10.30;99.90;;;;;;5028788;28;20047;-76
2023/11/22 03:51:21;;;;;;;7.00;1.70;;;10.30;99.90;;;;;;5027476;28;20230;-77
2023/11/22 03:53:47;;;;;;;9.57;1.77;;;10.30;99.90;;;;;;5044860;28;20029;-77
2023/11/22 03:56:13;;;;;;;7.75;1.55;;;10.40;99.90;;;;;;5030784;28;20045;-76
2023/11/22 03:58:40;;;;;;;4.85;1.42;;;10.40;99.90;;;;;;5030932;28;20147;-77
2023/11/22 04:01:06;;;;;;;14.30;1.90;;;10.40;99.90;;;;;;5047164;28;20210;-76
2023/11/22 04:03:32;;;;;;;9.35;1.55;;;10.50;99.90;;;;;;5047271;28;20025;-76
2023/11/22 04:05:57;;;;;;;7.68;1.55;;;10.50;99.90;;;;;;5030639;28;20379;-76
2023/11/22 04:08:24;;;;;;;5.55;1.58;;;10.50;99.90;;;;;;5030529;28;20025;-76
2023/11/22 04:10:50;;;;;;;6.30;1.67;;;10.50;99.90;;;;;;5047023;28;20040;-76
2023/11/22 04:13:16;;;;;;;4.38;1.30;;;10.60;99.90;;;;;;5047946;28;20033;-77
2023/11/22 04:15:41;;;;;;;7.38;1.50;;;10.60;99.90;;;;;;5047075;28;20032;-76
2023/11/22 04:18:07;;;;;;;9.30;2.03;;;10.60;99.90;;;;;;5048043;28;20089;-76
2023/11/22 04:20:33;;;;;;;7.78;1.73;;;10.70;99.90;;;;;;5047481;28;20033;-77
2023/11/22 04:22:58;;;;;;;7.43;1.60;;;10.70;99.90;;;;;;5046735;28;20100;-76
2023/11/22 04:25:24;;;;;;;7.97;1.80;;;10.70;99.90;;;;;;5030224;28;20022;-77
2023/11/22 04:27:50;;;;;;;6.95;1.42;;;10.70;99.90;;;;;;5030155;28;20041;-77
2023/11/22 04:30:17;;;;;;;3.83;1.40;;;10.70;99.90;;;;;;5046735;28;20063;-76
2023/11/22 04:32:43;;;;;;;5.80;1.10;;;10.70;99.90;;;;;;5030377;28;20067;-77
2023/11/22 04:35:09;;;;;;;4.55;1.60;;;10.70;99.90;;;;;;5046669;28;20048;-76
2023/11/22 04:37:35;;;;;;;3.22;1.15;;;10.80;99.90;;;;;;5046647;28;20028;-77
2023/11/22 04:40:03;;;;;;;8.35;1.77;;;10.80;99.90;;;;;;5029972;28;20025;-76
2023/11/22 04:42:29;;;;;;;4.90;1.27;;;10.80;99.90;;;;;;5030120;28;20033;-76
2023/11/22 04:44:54;;;;;;;8.15;1.50;;;10.80;99.90;;;;;;5047340;28;20013;-77
2023/11/22 04:47:21;;;;;;;10.35;1.85;;;10.80;99.90;;;;;;5046453;28;20085;-76
2023/11/22 04:49:48;;;;;;;4.85;1.23;;;10.80;99.90;;;;;;5046953;28;20056;-76
2023/11/22 04:52:13;;;;;;;6.13;1.55;;;10.90;99.90;;;;;;5029908;28;20068;-77
2023/11/22 04:54:39;;;;;;;6.18;1.73;;;10.80;99.90;;;;;;5046136;28;20071;-77
2023/11/22 04:57:05;;;;;;;5.35;1.70;;;10.80;99.90;;;;;;5013193;28;20033;-76
2023/11/22 04:59:31;;;;;;;6.80;1.40;;;10.90;99.90;;;;;;5047103;28;20088;-77
2023/11/22 05:01:57;;;;;;;9.93;1.60;;;10.80;99.90;;;;;;5029205;28;20026;-77
2023/11/22 05:04:23;;;;;;;6.30;2.72;;;10.80;99.90;;;;;;5046040;28;20037;-76
2023/11/22 05:06:48;;;;;;;3.42;1.20;;;10.80;99.90;;;;;;5028935;28;20274;-77
2023/11/22 05:09:14;;;;;;;6.75;1.60;;;10.80;99.90;;;;;;5046031;28;20036;-77
2023/11/22 05:11:44;;;;;;;8.73;1.60;;;10.80;99.90;;;;;;5029568;28;20065;-77
2023/11/22 05:14:10;;;;;;;4.43;1.33;;;10.70;99.90;;;;;;5029809;28;20035;-76
2023/11/22 05:16:36;;;;;;;4.45;1.80;;;10.70;99.90;;;;;;5045791;28;20223;-77
2023/11/22 05:19:01;;;;;;;6.63;2.08;;;10.60;99.90;;;;;;5046808;28;20064;-77
2023/11/22 05:21:27;;;;;;;5.05;1.40;;;10.60;99.90;;;;;;5045606;28;20025;-77
2023/11/22 05:23:54;;;;;;;6.00;2.08;;;10.50;99.90;;;;;;5029396;28;20026;-77
2023/11/22 05:26:20;;;;;;;2.22;1.40;;;10.50;99.90;;;;;;5029275;28;20037;-76
2023/11/22 05:28:47;;;;;;;5.07;1.55;;;10.50;99.90;;;;;;5029246;28;20186;-76
2023/11/22 05:31:13;;;;;;;4.25;1.88;;;10.40;99.90;;;;;;5029167;28;20028;-77
2023/11/22 05:33:39;;;;;;;6.85;1.70;;;10.40;99.90;;;;;;5045417;28;20041;-76
2023/11/22 05:36:06;;;;;;;4.53;1.80;;;10.50;99.90;;;;;;5029123;28;20148;-76
2023/11/22 05:38:33;;;;;;;7.10;1.83;;;10.50;99.90;;;;;;5046184;28;20025;-76
2023/11/22 05:40:59;;;;;;;3.53;1.70;;;10.50;99.90;;;;;;5045175;28;20029;-76
2023/11/22 05:43:26;;;;;;;5.53;1.65;;;10.50;99.90;;;;;;5045343;28;20032;-76
2023/11/22 05:45:55;;;;;;;4.15;1.70;;;10.50;99.90;;;;;;5029125;28;20025;-76
2023/11/22 05:48:21;;;;;;;6.25;2.17;;;10.50;99.90;;;;;;5045083;28;20049;-76
2023/11/22 05:50:47;;;;;;;7.45;2.10;;;10.50;99.90;;;;;;5045080;28;20101;-76
2023/11/22 05:53:18;;;;;;;7.07;1.90;;;10.50;99.90;;;;;;5045193;28;20283;-76
2023/11/22 05:55:48;;;;;;;7.88;2.00;;;10.50;99.90;;;;;;5014027;28;20100;-76
2023/11/22 05:58:17;;;;;;;6.68;1.90;;;10.50;99.90;;;;;;5045090;28;20198;-76
2023/11/22 06:00:43;;;;;;;4.50;1.80;;;10.50;99.90;;;;;;5045813;28;20048;-77
2023/11/22 06:03:10;;;;;;;7.25;1.83;;;10.50;99.90;;;;;;5028392;28;20049;-77
2023/11/22 06:05:35;;;;;;;4.82;1.73;;;10.50;99.90;;;;;;5045015;28;20017;-77
2023/11/22 06:08:01;;;;;;;6.40;1.95;;;10.60;99.90;;;;;;5028304;28;20026;-77
2023/11/22 06:10:27;;;;;;;8.73;2.30;;;10.60;99.90;;;;;;5045470;28;20022;-77
2023/11/22 06:12:52;;;;;;;5.90;2.10;;;10.60;99.90;;;;;;5044818;28;20271;-77
2023/11/22 06:15:20;;;;;;;5.82;1.52;;;10.70;99.90;;;;;;5045736;28;20114;-77
2023/11/22 06:17:47;;;;;;;6.55;1.73;;;10.70;99.90;;;;;;5045029;28;20275;-77
2023/11/22 06:20:13;;;;;;;5.57;1.50;;;10.70;99.90;;;;;;5045703;28;20033;-77
2023/11/22 06:22:41;;;;;;;4.78;1.70;;;10.70;99.90;;;;;;5044623;28;20048;-77
2023/11/22 06:25:14;;;;;;;8.90;2.92;;;10.70;99.90;;;;;;5045246;28;20310;-77
2023/11/22 06:27:40;;;;;;;7.72;1.73;;;10.70;99.90;;;;;;5045288;28;20044;-77
2023/11/22 06:30:06;;;;;;;19.60;5.53;;;10.70;99.90;;;;;;5045689;28;20044;-77
2023/11/22 06:32:33;;;;;;;14.60;4.45;;;10.70;99.90;;;;;;5044755;28;20033;-76
2023/11/22 06:34:59;;;;;;;11.45;5.05;;;10.70;99.90;;;;;;5044414;28;20044;-77
2023/11/22 06:37:25;;;;;;;11.18;4.55;;;10.70;99.90;;;;;;5045494;28;20238;-76
2023/11/22 06:39:51;;;;;;;11.23;4.32;;;10.70;99.90;;;;;;5044618;28;20279;-77
2023/11/22 06:42:17;;;;;;;16.15;6.43;;;10.80;99.90;;;;;;5044058;28;20036;-77
2023/11/22 06:44:42;;;;;;;7.85;2.75;;;10.80;99.90;;;;;;5045036;28;20021;-77
2023/11/22 06:47:09;;;;;;;15.48;5.63;;;10.80;99.90;;;;;;5045341;28;20033;-76
2023/11/22 06:49:34;;;;;;;9.40;3.58;;;10.80;99.90;;;;;;5043984;28;20326;-77
2023/11/22 06:52:00;;;;;;;5.93;4.00;;;10.80;99.90;;;;;;5044362;28;20029;-77
2023/11/22 06:54:26;;;;;;;6.85;3.35;;;10.80;99.90;;;;;;5027969;28;20029;-77
2023/11/22 06:56:52;;;;;;;7.13;3.20;;;10.80;99.90;;;;;;5044317;28;20042;-77
2023/11/22 06:59:18;;;;;;;3.97;2.30;;;10.80;99.90;;;;;;5027762;28;20025;-77
2023/11/22 07:01:45;;;;;;;7.38;2.20;;;10.80;99.90;;;;;;5011464;28;20038;-77
2023/11/22 07:04:11;;;;;;;11.13;3.30;;;10.80;99.90;;;;;;5044072;28;20033;-77
2023/11/22 07:06:37;;;;;;;7.93;3.60;;;10.90;99.90;;;;;;5044171;28;20278;-77
2023/11/22 07:09:04;;;;;;;5.47;2.72;;;10.90;99.90;;;;;;5011681;28;20018;-77
2023/11/22 07:11:30;;;;;;;5.30;2.42;;;10.90;99.90;;;;;;5045178;28;20096;-77
2023/11/22 07:13:57;;;;;;;5.85;2.47;;;10.90;99.90;;;;;;5045205;28;20140;-77
2023/11/22 07:16:24;;;;;;;6.22;1.92;;;10.90;99.90;;;;;;5044262;28;20037;-77
2023/11/22 07:18:50;;;;;;;7.28;2.42;;;10.90;99.90;;;;;;5043986;28;20034;-77
2023/11/22 07:21:16;;;;;;;9.80;2.42;;;10.90;99.90;;;;;;5027546;28;20230;-77
2023/11/22 07:23:45;;;;;;;9.32;1.83;;;10.90;99.90;;;;;;5027931;28;20033;-77
2023/11/22 07:26:10;;;;;;;6.05;2.03;;;10.90;99.90;;;;;;5028199;28;20097;-77
2023/11/22 07:28:36;;;;;;;6.07;2.13;;;10.90;99.90;;;;;;5044968;28;20044;-76
2023/11/22 07:31:05;;;;;;;6.53;1.90;;;10.90;99.90;;;;;;5047367;28;20275;-77
2023/11/22 07:33:31;;;;;;;6.85;2.00;;;10.90;99.90;;;;;;5047650;28;20033;-77
2023/11/22 07:35:58;;;;;;;7.88;2.03;;;10.90;99.90;;;;;;5031133;28;20180;-77
2023/11/22 07:38:24;;;;;;;7.20;2.60;;;11.00;99.90;;;;;;5031248;28;20033;-76
2023/11/22 07:40:51;;;;;;;12.77;3.40;;;11.00;99.90;;;;;;5048479;28;20088;-77
2023/11/22 07:43:17;;;;;;;7.03;2.30;;;11.00;99.90;;;;;;5047371;28;20194;-76
2023/11/22 07:45:45;;;;;;;5.13;2.03;;;11.00;99.90;;;;;;5047554;28;20075;-77
2023/11/22 07:48:11;;;;;;;6.15;2.30;;;11.00;99.90;;;;;;5048476;28;20079;-76
2023/11/22 07:50:43;;;;;;;3.55;1.70;;;11.00;99.90;;;;;;5047401;28;20045;-76
2023/11/22 07:53:11;;;;;;;4.68;1.60;;;11.00;99.90;;;;;;5047952;28;20018;-77
2023/11/22 07:55:37;;;;;;;5.22;1.85;;;11.10;99.90;;;;;;5048127;28;20025;-77
2023/11/22 07:58:06;;;;;;;4.38;1.55;;;11.10;99.90;;;;;;5047061;28;20017;-77
2023/11/22 08:00:33;;;;;;;4.07;1.40;;;11.10;99.90;;;;;;5046944;28;20025;-77
2023/11/22 08:03:02;;;;;;;3.72;1.55;;;11.10;99.90;;;;;;5046824;28;20067;-76
2023/11/22 08:05:36;;;;;;;6.53;2.00;;;11.10;99.90;;;;;;5031189;28;20021;-77
2023/11/22 08:08:07;;;;;;;8.38;2.08;;;11.10;99.90;;;;;;5048128;28;20259;-77
2023/11/22 08:10:34;;;;;;;6.43;1.80;;;11.10;99.90;;;;;;5046963;28;20029;-79
2023/11/22 08:13:00;;;;;;;8.85;1.92;;;11.10;99.90;;;;;;5030658;28;20080;-77
2023/11/22 08:15:26;;;;;;;3.17;1.30;;;11.10;99.90;;;;;;5047985;28;20029;-76
2023/11/22 08:17:51;;;;;;;5.07;1.60;;;11.10;99.90;;;;;;5030479;28;20220;-77
2023/11/22 08:20:17;;;;;;;8.63;1.90;;;11.10;99.90;;;;;;5047059;28;20090;-77
2023/11/22 08:22:45;;;;;;;4.40;1.42;;;11.10;99.90;;;;;;5046730;28;20029;-76
2023/11/22 08:25:13;;;;;;;7.00;1.90;;;11.20;99.90;;;;;;5030420;28;20029;-76
2023/11/22 08:27:41;;;;;;;4.30;2.00;;;11.20;99.90;;;;;;5046731;28;20021;-76
2023/11/22 08:30:12;;;;;;;5.47;1.98;;;11.20;99.90;;;;;;5013862;28;20103;-76
2023/11/22 08:32:39;;;;;;;5.07;2.70;;;11.20;99.90;;;;;;5047220;28;20305;-77
2023/11/22 08:35:07;;;;;;;7.65;2.00;;;11.20;99.90;;;;;;5047285;28;20108;-77
2023/11/22 08:37:35;;;;;;;6.13;1.85;;;11.20;99.90;;;;;;5047527;28;20160;-77
2023/11/22 08:40:01;;;;;;;7.30;1.83;;;11.20;99.90;;;;;;5046415;28;20040;-76
2023/11/22 08:42:26;;;;;;;6.97;3.08;;;11.20;99.90;;;;;;5012031;28;20033;-77
2023/11/22 08:44:52;;;;;;;7.38;2.40;;;11.20;99.90;;;;;;5046103;28;20029;-76
2023/11/22 08:47:18;;;;;;;9.00;1.92;;;11.20;99.90;;;;;;5047241;28;20060;-77
2023/11/22 08:49:43;;;;;;;7.75;2.17;;;11.20;99.90;;;;;;5046685;28;20037;-77
2023/11/22 08:52:09;;;;;;;5.55;1.95;;;11.20;99.90;;;;;;5045951;28;20029;-77
2023/11/22 08:54:35;;;;;;;5.95;2.88;;;11.20;99.90;;;;;;5046624;28;20033;-76
2023/11/22 08:57:00;;;;;;;8.45;2.75;;;11.10;99.90;;;;;;5045762;28;20029;-77
2023/11/22 08:59:26;;;;;;;8.35;3.20;;;11.10;99.90;;;;;;5029644;28;20040;-77
2023/11/22 09:01:52;;;;;;;8.07;2.10;;;11.10;99.90;;;;;;5045712;28;20072;-78
2023/11/22 09:04:18;;;;;;;11.73;3.03;;;11.10;99.90;;;;;;5012943;28;20021;-77
2023/11/22 09:06:44;;;;;;;7.45;2.92;;;11.00;99.90;;;;;;5046718;28;20021;-77
2023/11/22 09:09:15;;;;;;;12.30;3.70;;;11.00;99.90;;;;;;5045716;28;20095;-77
2023/11/22 09:11:41;;;;;;;16.73;6.30;;;11.00;99.90;;;;;;5045937;28;20131;-77
2023/11/22 09:14:10;;;;;;;7.90;3.20;;;11.00;99.90;;;;;;5046813;28;20301;-77
2023/11/22 09:16:38;;;;;;;9.88;3.58;;;11.00;99.90;;;;;;5045732;28;20064;-77
2023/11/22 09:19:06;;;;;;;6.20;2.47;;;11.00;99.90;;;;;;5046664;28;20037;-76
2023/11/22 09:21:32;;;;;;;7.13;2.42;;;11.00;99.90;;;;;;5045135;28;20048;-76
2023/11/22 09:23:59;;;;;;;8.20;3.13;;;11.00;99.90;;;;;;5046485;28;20034;-77
2023/11/22 09:26:24;;;;;;;4.75;1.63;;;11.00;99.90;;;;;;5046236;28;20258;-76
2023/11/22 09:28:50;;;;;;;8.40;2.97;;;11.00;99.90;;;;;;5045348;28;20032;-77
2023/11/22 09:31:20;;;;;;;9.93;2.78;;;11.10;99.90;;;;;;5045375;28;20056;-76
2023/11/22 09:33:46;;;;;;;6.47;2.10;;;11.10;99.90;;;;;;5045124;28;20041;-77
2023/11/22 09:36:12;;;;;;;8.73;1.60;;;11.10;99.90;;;;;;5029191;28;20021;-76
2023/11/22 09:38:38;;;;;;;7.43;1.83;;;11.20;99.90;;;;;;5028868;28;20238;-77
2023/11/22 09:41:04;;;;;;;4.35;1.85;;;11.20;99.90;;;;;;5045093;28;20040;-77
2023/11/22 09:43:31;;;;;;;5.25;2.10;;;11.20;99.90;;;;;;5046110;28;20322;-78
2023/11/22 09:45:57;;;;;;;5.03;1.50;;;11.30;99.90;;;;;;5044997;28;20037;-77
2023/11/22 09:48:24;;;;;;;8.25;1.80;;;11.30;99.90;;;;;;5045688;28;20050;-78
2023/11/22 09:51:10;;;;;;;4.75;1.60;;;11.40;99.90;;;;;;5045061;28;20053;-78
2023/11/22 09:54:04;;;;;;;3.47;1.67;;;11.40;99.90;;;;;;5031164;28;20275;-79
2023/11/22 09:56:30;;;;;;;6.95;1.60;;;11.50;99.90;;;;;;5045661;28;20032;-78
2023/11/22 09:58:59;;;;;;;4.00;1.38;;;11.50;99.90;;;;;;5044751;28;20105;-79
2023/11/22 10:01:30;;;;;;;9.32;1.60;;;11.60;99.90;;;;;;5044508;28;20029;-78
2023/11/22 10:03:56;;;;;;;4.32;1.30;;;11.60;99.90;;;;;;5029025;28;20025;-78
2023/11/22 10:06:22;;;;;;;5.05;1.48;;;11.60;99.90;;;;;;5028247;28;20058;-78
2023/11/22 10:08:48;;;;;;;4.57;1.52;;;11.60;99.90;;;;;;5045489;28;20037;-78
2023/11/22 10:11:22;;;;;;;4.05;1.17;;;11.60;99.90;;;;;;5044645;28;20088;-78
2023/11/22 10:13:51;;;;;;;5.18;1.40;;;11.70;99.90;;;;;;5045727;28;20075;-78
2023/11/22 10:16:18;;;;;;;4.22;1.40;;;11.70;99.90;;;;;;5044563;28;20091;-77
2023/11/22 10:18:47;;;;;;;9.05;1.60;;;11.70;99.90;;;;;;5028172;28;20021;-78
2023/11/22 10:21:24;;;;;;;6.27;1.63;;;11.70;99.90;;;;;;5044361;28;20036;-78
2023/11/22 10:23:52;;;;;;;6.38;1.40;;;11.70;99.90;;;;;;5045388;28;20293;-77
2023/11/22 10:26:18;;;;;;;4.32;1.10;;;11.80;99.90;;;;;;5044380;28;20079;-78
2023/11/22 10:28:44;;;;;;;3.00;1.10;;;11.80;99.90;;;;;;5044480;28;20029;-78
2023/11/22 10:31:10;;;;;;;5.03;1.23;;;11.80;99.90;;;;;;5045348;28;20029;-77
2023/11/22 10:33:41;;;;;;;6.18;1.38;;;11.80;99.90;;;;;;5044441;28;20021;-77
2023/11/22 10:36:08;;;;;;;1.70;1.00;;;11.90;99.90;;;;;;5044466;28;20033;-78
2023/11/22 10:38:34;;;;;;;11.02;1.52;;;11.80;99.90;;;;;;5045005;28;20029;-78
2023/11/22 10:41:01;;;;;;;3.35;1.02;;;11.90;99.90;;;;;;5043926;28;20090;-77
2023/11/22 10:43:29;;;;;;;3.92;1.05;;;11.90;99.90;;;;;;5028012;28;20041;-78
2023/11/22 10:45:55;;;;;;;3.20;1.15;;;12.00;99.90;;;;;;5011599;28;20029;-77
2023/11/22 10:48:21;;;;;;;4.80;1.30;;;12.00;99.90;;;;;;5043870;28;20025;-77
2023/11/22 10:50:47;;;;;;;4.72;1.00;;;12.00;99.90;;;;;;5027623;28;20201;-77
2023/11/22 10:53:15;;;;;;;3.33;1.15;;;12.00;99.90;;;;;;5045099;28;20159;-78
2023/11/22 10:55:50;;;;;;;3.58;1.10;;;12.00;99.90;;;;;;5027839;28;20068;-76
2023/11/22 10:58:17;;;;;;;4.47;2.20;;;12.00;99.90;;;;;;5043905;28;20029;-76
2023/11/22 11:00:43;;;;;;;4.25;1.00;;;12.00;99.90;;;;;;5044001;28;20041;-76
2023/11/22 11:03:14;;;;;;;2.47;1.40;;;12.10;99.90;;;;;;5027822;28;20302;-76
2023/11/22 11:05:42;;;;;;;8.30;1.90;;;12.10;99.90;;;;;;5046838;28;20101;-77
2023/11/22 11:08:10;;;;;;;2.72;0.90;;;12.10;99.90;;;;;;5048217;28;20199;-77
2023/11/22 11:10:43;;;;;;;2.95;1.50;;;12.10;99.90;;;;;;5048009;28;20025;-76
2023/11/22 11:13:09;;;;;;;6.22;1.30;;;12.10;99.90;;;;;;5031720;28;20160;-76
2023/11/22 11:15:36;;;;;;;8.35;1.40;;;12.20;99.90;;;;;;5047945;28;20055;-76
2023/11/22 11:18:04;;;;;;;6.85;1.80;;;12.20;99.90;;;;;;5048481;28;20047;-76
2023/11/22 11:20:33;;;;;;;7.40;1.60;;;12.20;99.90;;;;;;5031443;28;20045;-76
2023/11/22 11:23:05;;;;;;;4.88;1.45;;;12.20;99.90;;;;;;5031300;28;20018;-76
2023/11/22 11:25:30;;;;;;;7.30;2.05;;;12.20;99.90;;;;;;5031488;28;20029;-76
2023/11/22 11:27:57;;;;;;;5.65;1.90;;;12.20;99.90;;;;;;5031299;28;20321;-76
2023/11/22 11:30:32;;;;;;;3.95;1.50;;;12.20;99.90;;;;;;5047382;28;20088;-77
2023/11/22 11:32:58;;;;;;;6.70;2.20;;;12.20;99.90;;;;;;5048381;28;20101;-76
2023/11/22 11:35:48;;;;;;;3.58;1.23;;;12.20;99.90;;;;;;5031789;28;20022;-76
2023/11/22 11:38:15;;;;;;;4.53;1.60;;;12.30;99.90;;;;;;5047956;28;20049;-76
2023/11/22 11:40:42;;;;;;;4.72;1.73;;;12.30;99.90;;;;;;5047216;28;20037;-76
2023/11/22 11:43:08;;;;;;;5.90;1.25;;;12.30;99.90;;;;;;5047251;28;20029;-77
2023/11/22 11:45:45;;;;;;;5.38;1.10;;;12.40;99.90;;;;;;5047092;28;20079;-76
2023/11/22 11:48:12;;;;;;;16.42;8.43;;;12.40;99.90;;;;;;5047824;28;20029;-76
2023/11/22 11:50:38;;;;;;;32.13;15.98;;;12.40;99.90;;;;;;5014208;28;20064;-76
2023/11/22 11:53:04;;;;;;;9.60;4.78;;;12.50;99.90;;;;;;5046932;28;20021;-76
2023/11/22 11:55:30;;;;;;;29.70;17.15;;;12.50;99.90;;;;;;5047101;28;20022;-76
2023/11/22 11:57:56;;;;;;;13.27;7.63;;;12.50;99.90;;;;;;5048050;28;20029;-76
2023/11/22 12:00:24;;;;;;;26.38;15.73;;;12.50;99.90;;;;;;5030154;28;20238;-76
2023/11/22 12:02:50;;;;;;;132.77;56.08;;;12.60;99.90;;;;;;5030477;28;20033;-76
2023/11/22 12:05:20;;;;;;;20.85;9.93;;;12.50;99.90;;;;;;5046386;28;20033;-75
2023/11/22 12:07:45;;;;;;;30.45;14.93;;;12.60;99.90;;;;;;5030466;28;20037;-75
2023/11/22 12:10:11;;;;;;;14.63;6.25;;;12.60;99.90;;;;;;5046614;28;20037;-76
2023/11/22 12:12:37;;;;;;;13.73;5.85;;;12.60;99.90;;;;;;5047518;28;20029;-76
2023/11/22 12:15:03;;;;;;;14.13;7.43;;;12.60;99.90;;;;;;5046580;28;20029;-76
2023/11/22 12:17:29;;;;;;;97.90;87.97;;;12.60;99.90;;;;;;5013637;28;20211;-75
2023/11/22 12:20:11;;;;;;;12.30;6.85;;;12.60;99.90;;;;;;5045873;28;20101;-76
2023/11/22 12:22:41;;;;;;;7.40;4.22;;;12.60;99.90;;;;;;5046814;28;20057;-76
2023/11/22 12:25:07;;;;;;;15.15;13.38;;;12.60;99.90;;;;;;5014373;28;20041;-76
2023/11/22 12:27:32;;;;;;;10.25;6.40;;;12.60;99.90;;;;;;5047830;28;20031;-76
2023/11/22 12:29:58;;;;;;;11.00;5.00;;;12.50;99.90;;;;;;5047387;28;20091;-76
2023/11/22 12:32:28;;;;;;;10.15;4.20;;;12.50;99.90;;;;;;5047115;28;20078;-75
2023/11/22 12:34:54;;;;;;;12.63;7.50;;;12.40;99.90;;;;;;5046958;28;20036;-76
2023/11/22 12:37:21;;;;;;;7.07;2.88;;;12.30;99.90;;;;;;5013146;28;20029;-76
2023/11/22 12:39:52;;;;;;;25.80;13.20;;;12.30;99.90;;;;;;5029815;28;20041;-77
2023/11/22 12:42:18;;;;;;;9.48;3.22;;;12.30;99.90;;;;;;5046421;28;20017;-77
2023/11/22 12:44:52;;;;;;;12.82;6.35;;;12.30;99.90;;;;;;5045890;28;20084;-77
2023/11/22 12:47:37;;;;;;;21.48;11.43;;;12.30;99.90;;;;;;5046813;28;20164;-76